Time;durP1;ratioP1;P1;durP2;ratioP2;P2;SDS_P1;SDS_P2;PMS_P1;PMS_P2;Temp;Humidity;BMP_temperature;BMP_pressure;BME280_temperature;BME280_humidity;BME280_pressure;Samples;Min_cycle;Max_cycle;Signal;HPM_P1;HPM_P2
2021/08/10 00:01:49;;;;;;;5.17;2.60;;;;;;;14.74;100.00;100927.72;4933454;29;20220;-73
2021/08/10 00:04:15;;;;;;;2.57;2.27;;;;;;;14.52;100.00;100927.44;4949581;29;20610;-73
2021/08/10 00:06:41;;;;;;;4.33;2.33;;;;;;;14.60;100.00;100935.00;4941356;28;20227;-74
2021/08/10 00:09:06;;;;;;;4.70;2.50;;;;;;;14.67;100.00;100930.00;4936938;29;20183;-73
2021/08/10 00:11:35;;;;;;;3.23;2.20;;;;;;;14.65;100.00;100940.41;4952369;28;20262;-73
2021/08/10 00:14:03;;;;;;;3.53;2.10;;;;;;;14.60;100.00;100929.56;4954011;29;20191;-73
2021/08/10 00:16:29;;;;;;;3.03;2.13;;;;;;;14.43;100.00;100934.66;4953546;28;20261;-74
2021/08/10 00:18:57;;;;;;;3.17;2.37;;;;;;;14.38;100.00;100931.19;4936877;29;20199;-73
2021/08/10 00:21:23;;;;;;;2.63;2.40;;;;;;;14.42;100.00;100926.75;4935508;29;20227;-73
2021/08/10 00:23:48;;;;;;;2.40;2.20;;;;;;;14.44;100.00;100936.28;4952934;29;20645;-75
2021/08/10 00:26:19;;;;;;;3.27;2.03;;;;;;;14.36;100.00;100928.72;4952455;28;20233;-74
2021/08/10 00:28:45;;;;;;;3.33;2.33;;;;;;;14.28;100.00;100931.28;4952791;29;20277;-74
2021/08/10 00:31:15;;;;;;;3.90;2.30;;;;;;;14.28;100.00;100931.28;4936044;29;20277;-77
2021/08/10 00:33:44;;;;;;;4.23;2.17;;;;;;;14.31;100.00;100936.16;4934060;29;20195;-74
2021/08/10 00:36:12;;;;;;;4.27;2.30;;;;;;;14.27;100.00;100935.94;4948859;28;20230;-73
2021/08/10 00:38:38;;;;;;;3.77;2.40;;;;;;;14.22;100.00;100929.69;4967569;28;20191;-73
2021/08/10 00:41:09;;;;;;;4.53;2.40;;;;;;;14.16;100.00;100927.31;4951758;29;20625;-73
2021/08/10 00:43:40;;;;;;;5.03;2.30;;;;;;;14.15;100.00;100926.50;4954077;28;20253;-72
2021/08/10 00:46:27;;;;;;;4.40;2.33;;;;;;;14.09;100.00;100935.03;4966270;28;20281;-73
2021/08/10 00:48:58;;;;;;;4.53;2.70;;;;;;;13.97;100.00;100934.56;4964606;29;20179;-77
2021/08/10 00:51:32;;;;;;;4.77;2.57;;;;;;;14.12;100.00;100927.09;4976717;28;20309;-74
2021/08/10 00:54:03;;;;;;;3.67;2.57;;;;;;;14.00;100.00;100923.06;4971215;28;20561;-73
2021/08/10 00:56:32;;;;;;;4.80;2.90;;;;;;;14.02;100.00;100926.34;4938143;28;20237;-73
2021/08/10 00:58:59;;;;;;;4.20;2.40;;;;;;;13.97;100.00;100929.09;4968281;28;20282;-75
2021/08/10 01:01:29;;;;;;;4.80;2.40;;;;;;;13.95;100.00;100921.19;4968158;28;20215;-75
2021/08/10 01:03:57;;;;;;;3.97;2.57;;;;;;;13.98;100.00;100926.09;4963889;28;20335;-73
2021/08/10 01:06:34;;;;;;;5.37;2.50;;;;;;;14.05;100.00;100925.81;4918271;29;20243;-73
2021/08/10 01:09:12;;;;;;;3.97;2.50;;;;;;;14.01;100.00;100925.56;4919444;29;20269;-74
2021/08/10 01:12:05;;;;;;;3.27;2.50;;;;;;;14.07;100.00;100929.06;4933802;28;20246;-75
2021/08/10 01:14:56;;;;;;;2.80;2.43;;;;;;;14.01;100.00;100919.22;4949652;29;20273;-75
2021/08/10 01:17:30;;;;;;;3.80;2.67;;;;;;;13.87;100.00;100919.09;4922707;29;20219;-74
2021/08/10 01:20:21;;;;;;;4.77;2.40;;;;;;;13.83;100.00;100914.50;4921173;28;20203;-74
2021/08/10 01:22:51;;;;;;;4.47;2.40;;;;;;;13.76;100.00;100916.75;4968583;28;20282;-73
2021/08/10 01:25:30;;;;;;;2.27;2.07;;;;;;;13.77;100.00;100912.09;4936487;28;20269;-74
2021/08/10 01:28:23;;;;;;;3.93;2.37;;;;;;;13.74;100.00;100918.13;4936415;29;20183;-74
2021/08/10 01:31:02;;;;;;;3.97;2.60;;;;;;;13.80;100.00;100917.00;4950214;28;20235;-73
2021/08/10 01:33:29;;;;;;;3.93;2.37;;;;;;;13.84;100.00;100913.38;4957220;28;20235;-74
2021/08/10 01:35:59;;;;;;;6.13;2.53;;;;;;;13.80;100.00;100915.06;4936078;29;20294;-74
2021/08/10 01:38:25;;;;;;;4.60;2.50;;;;;;;13.87;100.00;100907.34;4926132;28;20210;-74
2021/08/10 01:40:53;;;;;;;3.67;2.70;;;;;;;13.75;100.00;100912.38;4952526;28;20319;-73
2021/08/10 01:43:19;;;;;;;5.63;2.50;;;;;;;13.75;100.00;100915.09;4941142;28;20182;-73
2021/08/10 01:45:49;;;;;;;5.27;2.97;;;;;;;13.74;100.00;100908.03;4952661;28;20215;-73
2021/08/10 01:48:20;;;;;;;4.57;2.57;;;;;;;13.66;100.00;100910.53;4959045;28;20179;-75
2021/08/10 01:50:45;;;;;;;4.23;2.70;;;;;;;13.62;100.00;100904.03;4924519;29;20253;-74
2021/08/10 01:53:16;;;;;;;3.43;2.47;;;;;;;13.67;100.00;100909.47;4926513;29;20283;-75
2021/08/10 01:55:44;;;;;;;4.17;3.13;;;;;;;13.61;100.00;100896.97;4956116;29;20219;-73
2021/08/10 01:58:25;;;;;;;4.77;2.30;;;;;;;13.63;100.00;100898.28;4960913;28;20566;-74
2021/08/10 02:00:57;;;;;;;4.20;3.00;;;;;;;13.63;100.00;100905.69;4927258;29;20235;-74
2021/08/10 02:03:26;;;;;;;5.97;2.97;;;;;;;13.52;100.00;100906.84;4943395;29;20186;-74
2021/08/10 02:06:03;;;;;;;4.40;2.50;;;;;;;13.62;100.00;100902.09;4972567;28;20245;-74
2021/08/10 02:08:34;;;;;;;4.07;2.57;;;;;;;13.63;100.00;100903.75;4940335;28;20179;-74
2021/08/10 02:11:03;;;;;;;4.47;2.60;;;;;;;13.49;100.00;100910.94;4938966;29;20219;-74
2021/08/10 02:13:36;;;;;;;5.53;2.63;;;;;;;13.57;100.00;100896.72;4939116;28;20187;-73
2021/08/10 02:16:05;;;;;;;4.80;2.73;;;;;;;13.58;100.00;100902.97;4939335;28;20222;-73
2021/08/10 02:18:33;;;;;;;3.53;2.87;;;;;;;13.78;100.00;100903.63;4924294;29;20183;-73
2021/08/10 02:21:09;;;;;;;4.27;2.87;;;;;;;13.72;100.00;100907.50;4954294;28;20712;-73
2021/08/10 02:23:39;;;;;;;5.10;2.60;;;;;;;13.54;100.00;100902.72;4927058;28;20191;-74
2021/08/10 02:26:06;;;;;;;3.73;2.60;;;;;;;13.62;100.00;100904.84;4923149;29;20222;-74
2021/08/10 02:28:33;;;;;;;3.73;2.50;;;;;;;13.65;100.00;100898.81;4939078;29;20518;-73
2021/08/10 02:31:03;;;;;;;5.60;2.60;;;;;;;13.65;100.00;100898.81;4923054;28;20234;-74
2021/08/10 02:33:43;;;;;;;3.67;2.50;;;;;;;13.61;100.00;100900.50;4955045;29;20274;-73
2021/08/10 02:36:16;;;;;;;3.73;2.60;;;;;;;13.60;100.00;100901.59;4939625;29;20309;-73
2021/08/10 02:38:47;;;;;;;2.77;2.57;;;;;;;13.49;100.00;100910.94;4938203;28;20186;-74
2021/08/10 02:41:13;;;;;;;4.17;2.80;;;;;;;13.60;100.00;100901.59;4908796;29;20255;-74
2021/08/10 02:43:51;;;;;;;3.63;2.60;;;;;;;13.62;100.00;100909.50;4927245;29;20174;-74
2021/08/10 02:46:17;;;;;;;4.27;2.60;;;;;;;13.66;100.00;100914.13;4955137;29;20732;-74
2021/08/10 02:48:42;;;;;;;5.80;2.67;;;;;;;13.63;100.00;100911.13;4955218;29;20183;-74
2021/08/10 02:51:10;;;;;;;3.63;2.67;;;;;;;13.65;100.00;100903.47;4937597;28;20281;-74
2021/08/10 02:53:41;;;;;;;3.90;2.40;;;;;;;13.69;100.00;100899.88;4939132;29;20214;-74
2021/08/10 02:56:14;;;;;;;5.77;2.50;;;;;;;13.71;100.00;100897.66;4937635;29;20231;-74
2021/08/10 02:58:46;;;;;;;3.20;2.30;;;;;;;13.76;100.00;100894.91;4954481;28;20190;-74
2021/08/10 03:01:16;;;;;;;3.07;2.50;;;;;;;13.71;100.00;100896.84;4936903;28;20230;-74
2021/08/10 03:03:42;;;;;;;3.37;2.50;;;;;;;13.64;100.00;100901.81;4953266;28;20182;-74
2021/08/10 03:06:09;;;;;;;4.83;2.67;;;;;;;13.70;100.00;100893.31;4953390;29;20211;-74
2021/08/10 03:08:40;;;;;;;3.13;2.83;;;;;;;13.75;100.00;100893.25;4953647;29;20611;-74
2021/08/10 03:11:06;;;;;;;3.87;2.80;;;;;;;13.71;100.00;100892.22;4937519;29;20720;-74
2021/08/10 03:13:38;;;;;;;3.30;2.63;;;;;;;13.77;100.00;100895.72;4937703;28;20236;-74
2021/08/10 03:16:07;;;;;;;2.70;2.50;;;;;;;13.73;100.00;100895.47;4953588;28;20218;-76
2021/08/10 03:18:38;;;;;;;2.87;2.40;;;;;;;13.72;100.00;100898.50;4924080;29;20186;-74
2021/08/10 03:21:06;;;;;;;4.80;2.60;;;;;;;13.84;100.00;100902.47;4935047;28;20739;-75
2021/08/10 03:23:35;;;;;;;3.53;2.37;;;;;;;13.89;100.00;100895.03;4937976;29;20171;-74
2021/08/10 03:26:01;;;;;;;3.17;2.57;;;;;;;14.01;100.00;100894.63;4937238;29;20215;-75
2021/08/10 03:28:26;;;;;;;4.03;2.70;;;;;;;13.97;100.00;100885.41;4937214;29;20623;-75
2021/08/10 03:30:56;;;;;;;2.60;2.40;;;;;;;13.98;100.00;100892.50;4952660;28;20235;-74
2021/08/10 03:33:26;;;;;;;4.23;2.40;;;;;;;14.06;100.00;100889.16;4906116;29;20265;-74
2021/08/10 03:35:52;;;;;;;3.57;2.40;;;;;;;13.95;100.00;100896.59;4905267;29;20218;-75
2021/08/10 03:38:19;;;;;;;3.43;2.40;;;;;;;13.89;100.00;100895.03;4937259;29;20254;-74
2021/08/10 03:40:44;;;;;;;5.83;2.60;;;;;;;14.07;100.00;100886.16;4921375;29;20751;-75
2021/08/10 03:43:10;;;;;;;3.70;2.40;;;;;;;14.03;100.00;100896.03;4921352;29;20187;-74
2021/08/10 03:45:36;;;;;;;2.80;2.30;;;;;;;14.05;100.00;100890.28;4921355;29;20755;-74
2021/08/10 03:48:04;;;;;;;2.90;2.30;;;;;;;13.94;100.00;100888.72;4937525;28;20198;-75
2021/08/10 03:50:36;;;;;;;3.07;2.27;;;;;;;13.96;100.00;100884.59;4933664;29;20223;-73
2021/08/10 03:53:02;;;;;;;2.80;2.50;;;;;;;14.08;100.00;100886.97;4934092;29;20226;-75
2021/08/10 03:55:29;;;;;;;3.63;2.40;;;;;;;14.14;100.00;100899.44;4940631;28;20703;-74
2021/08/10 03:57:56;;;;;;;4.80;2.60;;;;;;;14.21;100.00;100894.47;4936761;29;20183;-74
2021/08/10 04:00:22;;;;;;;3.13;2.67;;;;;;;14.31;100.00;100900.66;4923578;28;20677;-75
2021/08/10 04:02:53;;;;;;;4.47;2.50;;;;;;;14.37;100.00;100892.06;4937585;29;20190;-73
2021/08/10 04:05:25;;;;;;;4.23;2.50;;;;;;;14.37;100.00;100889.34;4938579;28;20338;-74
2021/08/10 04:07:54;;;;;;;4.77;3.30;;;;;;;14.36;100.00;100889.66;4952979;28;20611;-74
2021/08/10 04:10:20;;;;;;;2.90;2.40;;;;;;;14.36;100.00;100889.66;4967906;28;20207;-76
2021/08/10 04:12:48;;;;;;;2.23;2.03;;;;;;;14.36;100.00;100906.88;4936737;29;20593;-73
2021/08/10 04:15:14;;;;;;;4.10;2.50;;;;;;;14.30;100.00;100894.38;4936404;28;20630;-74
2021/08/10 04:17:40;;;;;;;3.20;2.37;;;;;;;14.34;100.00;100903.63;4968529;28;20633;-75
2021/08/10 04:20:08;;;;;;;4.30;2.80;;;;;;;14.29;100.00;100911.06;4951902;28;20274;-73
2021/08/10 04:22:34;;;;;;;3.40;2.47;;;;;;;14.26;100.00;100915.16;4952519;28;20326;-74
2021/08/10 04:25:03;;;;;;;3.03;2.63;;;;;;;14.45;100.00;100912.50;4906233;29;20206;-75
2021/08/10 04:27:28;;;;;;;3.17;2.80;;;;;;;14.41;100.00;100908.72;4914853;29;20265;-75
2021/08/10 04:29:58;;;;;;;6.73;2.70;;;;;;;14.47;100.00;100919.31;4951494;28;20215;-74
2021/08/10 04:32:25;;;;;;;3.00;2.30;;;;;;;14.64;100.00;100908.72;4917928;29;20305;-74
2021/08/10 04:34:52;;;;;;;4.40;2.70;;;;;;;14.68;100.00;100904.28;4933974;29;20183;-74
2021/08/10 04:37:21;;;;;;;6.30;3.40;;;;;;;14.71;100.00;100909.97;4964949;28;20736;-75
2021/08/10 04:39:52;;;;;;;3.70;2.73;;;;;;;14.76;100.00;100912.66;4953210;28;20217;-75
2021/08/10 04:42:37;;;;;;;3.20;2.70;;;;;;;14.76;100.00;100906.34;4938477;29;20214;-74
2021/08/10 04:45:05;;;;;;;3.63;2.50;;;;;;;14.74;100.00;100892.16;4952562;28;20246;-74
2021/08/10 04:47:32;;;;;;;2.60;2.40;;;;;;;14.70;100.00;100902.06;4936358;29;20218;-74
2021/08/10 04:50:01;;;;;;;4.63;2.50;;;;;;;14.72;100.00;100905.31;4936558;29;20199;-74
2021/08/10 04:52:32;;;;;;;3.90;2.40;;;;;;;14.84;100.00;100903.00;4963878;28;20258;-74
2021/08/10 04:54:58;;;;;;;4.27;2.47;;;;;;;14.86;100.00;100890.63;4951937;29;20187;-75
2021/08/10 04:57:25;;;;;;;4.00;2.37;;;;;;;14.78;100.00;100880.38;4963290;28;20241;-74
2021/08/10 04:59:53;;;;;;;3.73;2.80;;;;;;;14.79;100.00;100881.16;4967541;28;20677;-73
2021/08/10 05:02:20;;;;;;;4.40;2.90;;;;;;;14.83;100.00;100885.75;4961213;28;20681;-74
2021/08/10 05:04:50;;;;;;;5.40;3.23;;;;;;;14.85;100.00;100877.25;4922489;29;20218;-75
2021/08/10 05:07:19;;;;;;;4.03;2.70;;;;;;;14.76;100.00;100898.16;4926897;29;20224;-74
2021/08/10 05:09:46;;;;;;;4.90;2.90;;;;;;;14.79;100.00;100903.03;4949416;29;20286;-75
2021/08/10 05:12:13;;;;;;;4.70;2.90;;;;;;;14.94;100.00;100908.31;4936054;28;20297;-75
2021/08/10 05:14:40;;;;;;;2.90;2.60;;;;;;;15.12;100.00;100906.38;4968982;28;20234;-76
2021/08/10 05:17:08;;;;;;;4.43;2.87;;;;;;;15.14;100.00;100909.69;4953285;28;20648;-76
2021/08/10 05:19:42;;;;;;;4.40;2.57;;;;;;;15.19;100.00;100912.34;4953382;28;20203;-76
2021/08/10 05:22:12;;;;;;;5.13;2.90;;;;;;;15.34;100.00;100912.13;4951756;29;20238;-75
2021/08/10 05:24:42;;;;;;;3.87;2.40;;;;;;;15.35;100.00;100910.19;4937431;29;20180;-75
2021/08/10 05:27:12;;;;;;;3.33;2.57;;;;;;;15.42;100.00;100911.47;4953748;28;20595;-75
2021/08/10 05:29:37;;;;;;;2.87;2.47;;;;;;;15.48;100.00;100910.28;4956471;28;20285;-75
2021/08/10 05:32:06;;;;;;;4.10;2.67;;;;;;;15.49;100.00;100907.25;4936445;29;20224;-75
2021/08/10 05:34:32;;;;;;;5.00;2.47;;;;;;;15.64;100.00;100903.41;4937195;29;20334;-74
2021/08/10 05:36:58;;;;;;;3.50;2.60;;;;;;;15.77;100.00;100902.66;4953764;29;20214;-75
2021/08/10 05:39:23;;;;;;;5.90;2.70;;;;;;;15.77;100.00;100902.66;4923771;29;20179;-74
2021/08/10 05:41:55;;;;;;;4.00;2.38;;;;;;;15.61;100.00;100909.50;4924872;29;20219;-73
2021/08/10 05:44:20;;;;;;;2.95;2.20;;;;;;;15.65;100.00;100910.53;4972553;28;20269;-76
2021/08/10 05:46:55;;;;;;;4.20;2.20;;;;;;;15.73;100.00;100912.59;4940666;29;20715;-75
2021/08/10 05:49:24;;;;;;;3.35;2.40;;;;;;;15.78;100.00;100905.09;4957481;29;20164;-74
2021/08/10 05:51:52;;;;;;;2.57;2.30;;;;;;;15.88;100.00;100900.25;4954794;29;20250;-76
2021/08/10 05:54:21;;;;;;;3.53;2.30;;;;;;;16.01;100.00;100896.75;4956567;29;20195;-75
2021/08/10 05:56:49;;;;;;;4.00;2.30;;;;;;;16.05;100.00;100896.94;4968141;28;20313;-75
2021/08/10 05:59:20;;;;;;;2.85;2.35;;;;;;;16.15;100.00;100900.28;4958230;28;20179;-76
2021/08/10 06:01:47;;;;;;;4.75;2.25;;;;;;;16.12;100.00;100883.66;4924710;28;20230;-74
2021/08/10 06:04:16;;;;;;;3.22;2.42;;;;;;;16.20;100.00;100878.31;4924270;29;20265;-75
2021/08/10 06:06:45;;;;;;;2.50;2.30;;;;;;;16.19;100.00;100884.94;4954559;29;20575;-75
2021/08/10 06:09:10;;;;;;;2.78;2.28;;;;;;;16.28;100.00;100883.06;4938077;29;20194;-76
2021/08/10 06:11:40;;;;;;;3.08;2.40;;;;;;;16.06;100.00;100888.44;4939092;29;20962;-76
2021/08/10 06:14:13;;;;;;;2.80;1.80;;;;;;;15.97;100.00;100894.88;4939937;29;20186;-77
2021/08/10 06:16:39;;;;;;;4.93;2.40;;;;;;;15.90;100.00;100897.22;4923777;29;20226;-76
2021/08/10 06:19:12;;;;;;;3.88;2.55;;;;;;;15.91;100.00;100894.16;4949739;28;20191;-76
2021/08/10 06:21:41;;;;;;;3.65;2.40;;;;;;;16.00;100.00;100905.25;4950667;29;20246;-77
2021/08/10 06:24:08;;;;;;;3.80;2.33;;;;;;;16.11;100.00;100898.47;4937805;29;20219;-74
2021/08/10 06:26:39;;;;;;;3.75;2.40;;;;;;;16.40;100.00;100880.66;4935714;29;20223;-74
2021/08/10 06:29:07;;;;;;;5.15;2.25;;;;;;;16.37;100.00;100881.25;4950758;29;20190;-75
2021/08/10 06:31:33;;;;;;;4.70;2.33;;;;;;;16.33;100.00;100891.22;4970899;28;20270;-74
2021/08/10 06:34:05;;;;;;;5.18;2.30;;;;;;;16.35;100.00;100910.91;4940215;28;20633;-76
2021/08/10 06:36:31;;;;;;;3.95;2.40;;;;;;;16.32;100.00;100909.59;4919401;29;20614;-76
2021/08/10 06:38:59;;;;;;;2.20;1.95;;;;;;;16.50;100.00;100907.88;4947329;29;20191;-74
2021/08/10 06:41:25;;;;;;;3.45;2.40;;;;;;;16.66;100.00;100902.56;4938479;29;20227;-75
2021/08/10 06:44:16;;;;;;;3.15;2.10;;;;;;;16.76;100.00;100896.91;4940050;29;20202;-76
2021/08/10 06:46:54;;;;;;;3.10;2.25;;;;;;;16.92;100.00;100881.72;4953513;29;20222;-77
2021/08/10 06:49:23;;;;;;;2.55;2.13;;;;;;;16.78;100.00;100891.91;4953478;29;20850;-75
2021/08/10 06:51:54;;;;;;;2.95;2.45;;;;;;;16.67;100.00;100886.94;4953324;28;20390;-75
2021/08/10 06:54:20;;;;;;;4.80;2.05;;;;;;;16.66;100.00;100888.84;4938010;29;20303;-74
2021/08/10 06:56:50;;;;;;;3.03;2.15;;;;;;;16.62;100.00;100893.34;4953609;28;20659;-76
2021/08/10 06:59:22;;;;;;;4.22;2.33;;;;;;;16.43;100.00;100888.28;4963933;28;20258;-74
2021/08/10 07:01:51;;;;;;;2.38;2.13;;;;;;;16.42;100.00;100894.88;4952634;28;20234;-75
2021/08/10 07:04:17;;;;;;;4.75;2.42;;;;;;;16.28;100.00;100894.03;4947111;28;20261;-74
2021/08/10 07:06:43;;;;;;;3.55;2.30;;;;;;;16.54;100.00;100906.13;4969251;28;20705;-75
2021/08/10 07:09:11;;;;;;;3.90;2.60;;;;;;;16.49;100.00;100900.78;4969496;28;20204;-75
2021/08/10 07:11:46;;;;;;;6.18;4.03;;;;;;;16.30;100.00;100908.25;4923574;29;20326;-74
2021/08/10 07:14:12;;;;;;;8.23;4.00;;;;;;;16.36;100.00;100910.63;4929679;28;20187;-73
2021/08/10 07:16:44;;;;;;;4.22;2.47;;;;;;;16.45;100.00;100910.72;4936477;29;20233;-75
2021/08/10 07:19:10;;;;;;;3.88;2.60;;;;;;;16.32;100.00;100914.28;4956217;28;20191;-74
2021/08/10 07:21:36;;;;;;;2.72;2.20;;;;;;;16.31;100.00;100910.72;4949593;29;20227;-74
2021/08/10 07:24:08;;;;;;;3.33;2.55;;;;;;;16.38;100.00;100911.13;4963687;28;20572;-75
2021/08/10 07:26:41;;;;;;;3.85;2.60;;;;;;;16.26;100.00;100912.72;4907799;29;20658;-77
2021/08/10 07:29:09;;;;;;;3.78;2.72;;;;;;;16.34;100.00;100914.78;4942061;29;20183;-73
2021/08/10 07:31:35;;;;;;;3.97;2.70;;;;;;;16.34;100.00;100912.84;4936833;29;20229;-74
2021/08/10 07:34:06;;;;;;;4.40;3.17;;;;;;;16.30;100.00;100924.72;4926657;28;20202;-75
2021/08/10 07:36:34;;;;;;;3.90;3.25;;;;;;;16.49;100.00;100914.50;4921999;28;20238;-74
2021/08/10 07:39:03;;;;;;;5.55;3.40;;;;;;;16.47;100.00;100930.44;4946319;29;20183;-76
2021/08/10 07:41:29;;;;;;;3.40;3.08;;;;;;;16.50;100.00;100924.31;4920796;29;20716;-73
2021/08/10 07:43:57;;;;;;;4.38;3.40;;;;;;;16.64;100.00;100932.25;4921191;29;20258;-74
2021/08/10 07:46:24;;;;;;;4.03;3.63;;;;;;;16.50;100.00;100924.31;4937028;28;20218;-75
2021/08/10 07:48:50;;;;;;;5.15;3.92;;;;;;;16.70;100.00;100933.81;4936791;28;20187;-75
2021/08/10 07:51:19;;;;;;;4.60;3.67;;;;;;;16.53;100.00;100929.22;4922094;28;20222;-72
2021/08/10 07:53:45;;;;;;;6.28;3.55;;;;;;;16.41;100.00;100923.41;4936910;29;20235;-74
2021/08/10 07:56:12;;;;;;;6.43;4.00;;;;;;;16.46;100.00;100923.31;4936539;28;20218;-74
2021/08/10 07:58:38;;;;;;;6.65;4.20;;;;;;;16.56;100.00;100919.25;4952500;29;20183;-76
2021/08/10 08:01:06;;;;;;;4.18;3.65;;;;;;;16.55;100.00;100907.78;4935865;29;20661;-75
2021/08/10 08:03:35;;;;;;;7.43;4.07;;;;;;;16.67;100.00;100898.72;4936860;29;20185;-75
2021/08/10 08:06:04;;;;;;;7.22;4.03;;;;;;;16.75;100.00;100897.19;4936730;29;20249;-74
2021/08/10 08:08:30;;;;;;;5.57;4.13;;;;;;;16.91;100.00;100891.09;4952223;28;20195;-73
2021/08/10 08:10:57;;;;;;;6.20;4.28;;;;;;;16.91;100.00;100887.53;4962988;28;20254;-74
2021/08/10 08:13:31;;;;;;;5.72;4.10;;;;;;;17.10;100.00;100883.50;4918271;29;20294;-74
2021/08/10 08:16:00;;;;;;;5.75;3.92;;;;;;;17.24;100.00;100887.06;4935938;29;20222;-75
2021/08/10 08:18:27;;;;;;;7.13;3.90;;;;;;;17.46;100.00;100880.47;4936367;29;20183;-76
2021/08/10 08:20:52;;;;;;;5.05;4.20;;;;;;;17.57;100.00;100870.84;4932772;28;20592;-75
2021/08/10 08:23:26;;;;;;;10.10;7.45;;;;;;;17.53;100.00;100874.53;4968654;28;20183;-74
2021/08/10 08:25:53;;;;;;;9.63;7.07;;;;;;;17.56;100.00;100874.69;4937651;28;20219;-74
2021/08/10 08:28:19;;;;;;;5.72;5.00;;;;;;;17.45;100.00;100872.53;4952397;28;20191;-73
2021/08/10 08:30:48;;;;;;;6.05;4.25;;;;;;;17.52;100.00;100872.91;4951947;28;20252;-73
2021/08/10 08:33:14;;;;;;;5.97;4.57;;;;;;;17.33;100.00;100875.84;4920983;28;20210;-74
2021/08/10 08:35:42;;;;;;;7.30;4.50;;;;;;;17.54;100.00;100871.47;4951545;29;20593;-75
2021/08/10 08:38:08;;;;;;;4.63;3.83;;;;;;;17.74;100.00;100874.50;4951756;29;20191;-74
2021/08/10 08:40:42;;;;;;;6.38;4.47;;;;;;;18.17;100.00;100875.63;4939383;29;20220;-75
2021/08/10 08:43:08;;;;;;;7.07;4.88;;;;;;;18.27;100.00;100872.56;4948804;29;20183;-76
2021/08/10 08:45:36;;;;;;;5.95;3.95;;;;;;;18.59;100.00;100875.78;4926109;29;20215;-75
2021/08/10 08:48:06;;;;;;;5.53;3.97;;;;;;;18.43;100.00;100880.09;4933311;29;20195;-74
2021/08/10 08:50:35;;;;;;;5.75;3.95;;;;;;;18.60;100.00;100874.63;4935763;28;20226;-74
2021/08/10 08:53:03;;;;;;;5.35;4.00;;;;;;;18.44;100.00;100880.88;4936231;29;20230;-75
2021/08/10 08:55:32;;;;;;;4.28;3.70;;;;;;;18.62;100.00;100884.19;4925611;28;20283;-76
2021/08/10 08:58:00;;;;;;;5.78;3.63;;;;;;;18.86;100.00;100870.81;4952055;29;20406;-75
2021/08/10 09:00:26;;;;;;;4.60;3.10;;;;;;;18.96;100.00;100874.06;4951253;28;20205;-75
2021/08/10 09:02:54;;;;;;;4.88;3.03;;;;;;;18.94;100.00;100865.31;4955390;28;20209;-73
2021/08/10 09:05:19;;;;;;;5.32;3.15;;;;;;;19.32;100.00;100864.41;4925534;28;20191;-75
2021/08/10 09:07:55;;;;;;;4.03;3.05;;;;;;;19.29;100.00;100861.50;4941071;28;20183;-76
2021/08/10 09:10:26;;;;;;;4.25;3.03;;;;;;;19.41;100.00;100861.63;4940180;28;20273;-75
2021/08/10 09:12:54;;;;;;;4.07;2.72;;;;;;;19.74;100.00;100852.50;4941118;29;20301;-75
2021/08/10 09:15:36;;;;;;;5.60;2.95;;;;;;;19.85;100.00;100857.41;4939376;28;20238;-74
2021/08/10 09:18:11;;;;;;;3.83;2.60;;;;;;;20.39;100.00;100853.81;4956069;29;20570;-77
2021/08/10 09:20:39;;;;;;;4.10;3.00;;;;;;;20.58;100.00;100847.50;4939660;29;20253;-75
2021/08/10 09:23:07;;;;;;;3.13;2.47;;;;;;;20.76;100.00;100859.31;4924864;28;20749;-78
2021/08/10 09:25:57;;;;;;;6.53;2.97;;;;;;;21.18;100.00;100846.00;4941870;29;20727;-76
2021/08/10 09:28:25;;;;;;;5.20;2.50;;;;;;;21.06;100.00;100848.72;4940515;29;20186;-75
2021/08/10 09:30:53;;;;;;;3.10;2.70;;;;;;;20.64;100.00;100840.72;4938334;29;20230;-76
2021/08/10 09:33:18;;;;;;;3.35;2.30;;;;;;;20.91;100.00;100845.72;4939732;29;20219;-76
2021/08/10 09:35:50;;;;;;;7.45;2.58;;;;;;;20.52;100.00;100843.34;4926743;28;20285;-75
2021/08/10 09:38:21;;;;;;;3.85;2.50;;;;;;;20.66;100.00;100848.63;4955312;29;20182;-76
2021/08/10 09:40:51;;;;;;;5.93;2.40;;;;;;;20.79;100.00;100848.41;4955594;28;20735;-77
2021/08/10 09:43:24;;;;;;;3.75;2.25;;;;;;;20.90;100.00;100846.88;4955415;28;20194;-73
2021/08/10 09:46:19;;;;;;;5.28;2.20;;;;;;;20.87;100.00;100855.81;4956282;28;20213;-74
2021/08/10 09:48:49;;;;;;;4.43;2.47;;;;;;;20.72;100.00;100850.88;4970981;28;20624;-75
2021/08/10 09:51:17;;;;;;;4.45;2.30;;;;;;;20.85;100.00;100845.09;4957947;28;20234;-74
2021/08/10 09:53:52;;;;;;;3.33;2.15;;;;;;;21.09;100.00;100831.44;4954883;29;20806;-75
2021/08/10 09:56:18;;;;;;;4.22;2.67;;;;;;;20.91;100.00;100843.78;4941761;28;20256;-75
2021/08/10 09:58:58;;;;;;;4.13;2.58;;;;;;;21.13;100.00;100828.81;4938767;29;20175;-74
2021/08/10 10:01:31;;;;;;;5.15;2.53;;;;;;;20.95;100.00;100841.13;4941494;28;20223;-74
2021/08/10 10:04:18;;;;;;;4.57;2.80;;;;;;;21.20;100.00;100837.38;4970992;28;20183;-74
2021/08/10 10:06:51;;;;;;;4.72;2.97;;;;;;;20.92;100.00;100830.78;4945307;28;20222;-73
2021/08/10 10:09:19;;;;;;;3.75;2.58;;;;;;;20.97;100.00;100833.31;4954551;29;20734;-77
2021/08/10 10:11:46;;;;;;;3.58;2.65;;;;;;;21.65;100.00;100823.34;4971300;28;20225;-74
2021/08/10 10:14:12;;;;;;;6.15;3.00;;;;;;;21.96;96.17;100818.09;4907704;29;20179;-73
2021/08/10 10:16:51;;;;;;;4.72;2.88;;;;;;;21.43;98.19;100820.94;4954239;28;20720;-73
2021/08/10 10:19:20;;;;;;;4.53;3.10;;;;;;;21.42;98.79;100818.50;4955225;28;20285;-74
2021/08/10 10:21:53;;;;;;;4.32;2.90;;;;;;;21.32;94.57;100816.94;4954717;29;20740;-73
2021/08/10 10:24:24;;;;;;;5.03;3.10;;;;;;;21.05;100.00;100808.41;4955849;29;20179;-75
2021/08/10 10:27:04;;;;;;;4.28;2.80;;;;;;;21.66;100.00;100808.34;4935474;29;20765;-76
2021/08/10 10:29:29;;;;;;;5.47;3.40;;;;;;;22.25;93.36;100811.28;4950251;29;20191;-74
2021/08/10 10:31:57;;;;;;;5.72;3.63;;;;;;;22.48;88.87;100818.75;4922019;29;20294;-74
2021/08/10 10:34:23;;;;;;;4.63;3.42;;;;;;;22.34;89.35;100808.38;4936774;29;20227;-76
2021/08/10 10:36:48;;;;;;;4.00;3.47;;;;;;;22.62;88.10;100808.13;4954236;28;20229;-75
2021/08/10 10:39:19;;;;;;;4.38;3.22;;;;;;;23.12;86.45;100798.25;4954999;28;20226;-74
2021/08/10 10:41:47;;;;;;;5.72;3.33;;;;;;;22.99;85.56;100804.97;4923534;29;20301;-73
2021/08/10 10:44:13;;;;;;;5.90;3.63;;;;;;;22.76;85.91;100807.75;4954272;29;20191;-75
2021/08/10 10:46:39;;;;;;;6.20;3.95;;;;;;;22.63;85.38;100801.41;4953666;28;20238;-75
2021/08/10 10:49:08;;;;;;;6.30;3.50;;;;;;;22.44;83.25;100808.72;4954250;28;20195;-77
2021/08/10 10:51:38;;;;;;;5.05;3.50;;;;;;;22.10;84.13;100803.59;4953541;29;20608;-74
2021/08/10 10:54:45;;;;;;;5.05;3.78;;;;;;;22.19;82.91;100795.22;4953587;29;20619;-72
2021/08/10 10:57:28;;;;;;;5.47;3.50;;;;;;;22.38;80.94;100793.50;4913916;29;20283;-74
2021/08/10 10:59:55;;;;;;;4.65;3.70;;;;;;;22.36;81.38;100794.97;4932766;29;20220;-74
2021/08/10 11:02:26;;;;;;;3.97;3.47;;;;;;;22.27;80.66;100792.34;4927595;28;20223;-74
2021/08/10 11:05:12;;;;;;;4.13;3.50;;;;;;;22.00;85.99;100791.38;4969410;28;20191;-75
2021/08/10 11:07:44;;;;;;;4.30;3.67;;;;;;;21.83;87.51;100791.56;4954904;29;20293;-81
2021/08/10 11:10:37;;;;;;;4.60;3.20;;;;;;;21.71;86.86;100802.59;4953155;28;20199;-73
2021/08/10 11:13:05;;;;;;;3.92;3.38;;;;;;;21.71;87.42;100799.84;4954942;28;20301;-76
2021/08/10 11:15:46;;;;;;;5.53;3.20;;;;;;;21.62;86.10;100793.59;4953547;28;20226;-76
2021/08/10 11:18:12;;;;;;;4.68;3.42;;;;;;;21.58;84.39;100798.19;4969088;28;20191;-76
2021/08/10 11:20:45;;;;;;;5.43;3.92;;;;;;;21.30;85.85;100802.66;4953143;28;20897;-74
2021/08/10 11:23:20;;;;;;;6.03;3.60;;;;;;;21.21;87.49;100803.06;4938824;28;20203;-74
2021/08/10 11:25:52;;;;;;;4.45;3.20;;;;;;;20.96;89.18;100799.38;4953522;28;20217;-75
2021/08/10 11:28:27;;;;;;;4.32;3.15;;;;;;;21.30;86.37;100793.56;4944702;28;20195;-72
2021/08/10 11:30:54;;;;;;;5.15;3.30;;;;;;;21.22;85.83;100806.28;4936868;29;20233;-73